sensor_id;sensor_type;location;lat;lon;timestamp;P1;durP1;ratioP1;P2;durP2;ratioP2
52734;SDS011;38631;47.572;10.704;2024-03-06T00:01:33;5.03;;;3.97;;
52734;SDS011;38631;47.572;10.704;2024-03-06T00:03:59;4.97;;;3.58;;
52734;SDS011;38631;47.572;10.704;2024-03-06T00:06:24;4.70;;;3.60;;
52734;SDS011;38631;47.572;10.704;2024-03-06T00:08:49;5.75;;;3.70;;
52734;SDS011;38631;47.572;10.704;2024-03-06T00:11:15;4.15;;;3.65;;
52734;SDS011;38631;47.572;10.704;2024-03-06T00:13:40;3.85;;;2.88;;
52734;SDS011;38631;47.572;10.704;2024-03-06T00:16:05;3.83;;;3.43;;
52734;SDS011;38631;47.572;10.704;2024-03-06T00:18:30;4.68;;;3.80;;
52734;SDS011;38631;47.572;10.704;2024-03-06T00:20:56;4.73;;;4.07;;
52734;SDS011;38631;47.572;10.704;2024-03-06T00:23:21;4.60;;;3.53;;
52734;SDS011;38631;47.572;10.704;2024-03-06T00:25:46;4.18;;;3.78;;
52734;SDS011;38631;47.572;10.704;2024-03-06T00:28:11;3.90;;;3.15;;
52734;SDS011;38631;47.572;10.704;2024-03-06T00:30:37;4.33;;;3.57;;
52734;SDS011;38631;47.572;10.704;2024-03-06T00:33:02;4.18;;;3.30;;
52734;SDS011;38631;47.572;10.704;2024-03-06T00:35:27;3.37;;;2.90;;
52734;SDS011;38631;47.572;10.704;2024-03-06T00:37:53;5.05;;;3.10;;
52734;SDS011;38631;47.572;10.704;2024-03-06T00:40:19;4.15;;;3.25;;
52734;SDS011;38631;47.572;10.704;2024-03-06T00:42:44;3.60;;;2.70;;
52734;SDS011;38631;47.572;10.704;2024-03-06T00:45:09;3.72;;;3.03;;
52734;SDS011;38631;47.572;10.704;2024-03-06T00:47:34;3.95;;;2.60;;
52734;SDS011;38631;47.572;10.704;2024-03-06T00:50:00;3.07;;;2.67;;
52734;SDS011;38631;47.572;10.704;2024-03-06T00:52:25;2.88;;;2.30;;
52734;SDS011;38631;47.572;10.704;2024-03-06T00:54:50;3.03;;;2.30;;
52734;SDS011;38631;47.572;10.704;2024-03-06T00:57:15;3.03;;;2.43;;
52734;SDS011;38631;47.572;10.704;2024-03-06T00:59:40;2.67;;;2.38;;
52734;SDS011;38631;47.572;10.704;2024-03-06T01:02:06;2.57;;;2.10;;
52734;SDS011;38631;47.572;10.704;2024-03-06T01:04:31;2.73;;;2.27;;
52734;SDS011;38631;47.572;10.704;2024-03-06T01:06:56;2.13;;;1.80;;
52734;SDS011;38631;47.572;10.704;2024-03-06T01:09:23;2.85;;;2.42;;
52734;SDS011;38631;47.572;10.704;2024-03-06T01:11:48;2.22;;;1.95;;
52734;SDS011;38631;47.572;10.704;2024-03-06T01:14:13;1.57;;;1.47;;
52734;SDS011;38631;47.572;10.704;2024-03-06T01:16:38;2.00;;;1.60;;
52734;SDS011;38631;47.572;10.704;2024-03-06T01:19:04;2.40;;;1.60;;
52734;SDS011;38631;47.572;10.704;2024-03-06T01:21:29;2.33;;;1.47;;
52734;SDS011;38631;47.572;10.704;2024-03-06T01:23:54;2.30;;;1.80;;
52734;SDS011;38631;47.572;10.704;2024-03-06T01:26:20;16.23;;;9.25;;
52734;SDS011;38631;47.572;10.704;2024-03-06T01:28:45;8.02;;;5.13;;
52734;SDS011;38631;47.572;10.704;2024-03-06T01:31:11;9.77;;;5.35;;
52734;SDS011;38631;47.572;10.704;2024-03-06T01:33:36;7.27;;;4.43;;
52734;SDS011;38631;47.572;10.704;2024-03-06T01:36:01;6.47;;;3.87;;
52734;SDS011;38631;47.572;10.704;2024-03-06T01:38:26;4.45;;;3.00;;
52734;SDS011;38631;47.572;10.704;2024-03-06T01:40:51;3.83;;;2.07;;
52734;SDS011;38631;47.572;10.704;2024-03-06T01:51:23;1.70;;;1.50;;
52734;SDS011;38631;47.572;10.704;2024-03-06T01:53:49;1.75;;;1.30;;
52734;SDS011;38631;47.572;10.704;2024-03-06T01:56:15;2.83;;;1.50;;
52734;SDS011;38631;47.572;10.704;2024-03-06T01:58:42;1.85;;;1.30;;
52734;SDS011;38631;47.572;10.704;2024-03-06T02:01:09;2.15;;;1.80;;
52734;SDS011;38631;47.572;10.704;2024-03-06T02:03:34;2.40;;;1.80;;
52734;SDS011;38631;47.572;10.704;2024-03-06T02:05:59;1.30;;;1.07;;
52734;SDS011;38631;47.572;10.704;2024-03-06T02:08:25;1.65;;;1.38;;
52734;SDS011;38631;47.572;10.704;2024-03-06T02:10:50;1.55;;;1.30;;
52734;SDS011;38631;47.572;10.704;2024-03-06T02:13:16;2.20;;;2.00;;
52734;SDS011;38631;47.572;10.704;2024-03-06T02:15:41;3.23;;;2.50;;
52734;SDS011;38631;47.572;10.704;2024-03-06T02:18:06;1.75;;;1.55;;
52734;SDS011;38631;47.572;10.704;2024-03-06T02:20:32;1.73;;;1.63;;
52734;SDS011;38631;47.572;10.704;2024-03-06T02:22:59;1.70;;;1.60;;
52734;SDS011;38631;47.572;10.704;2024-03-06T02:25:24;1.40;;;1.30;;
52734;SDS011;38631;47.572;10.704;2024-03-06T02:27:49;2.40;;;1.27;;
52734;SDS011;38631;47.572;10.704;2024-03-06T02:30:14;1.53;;;1.30;;
52734;SDS011;38631;47.572;10.704;2024-03-06T02:32:40;1.30;;;1.10;;
52734;SDS011;38631;47.572;10.704;2024-03-06T02:35:05;2.07;;;1.43;;
52734;SDS011;38631;47.572;10.704;2024-03-06T02:37:33;1.60;;;1.30;;
52734;SDS011;38631;47.572;10.704;2024-03-06T02:39:58;1.10;;;0.90;;
52734;SDS011;38631;47.572;10.704;2024-03-06T02:42:24;1.85;;;1.33;;
52734;SDS011;38631;47.572;10.704;2024-03-06T02:47:22;2.65;;;1.58;;
52734;SDS011;38631;47.572;10.704;2024-03-06T02:49:48;2.63;;;1.80;;
52734;SDS011;38631;47.572;10.704;2024-03-06T02:52:13;2.70;;;1.57;;
52734;SDS011;38631;47.572;10.704;2024-03-06T02:54:40;2.13;;;1.27;;
52734;SDS011;38631;47.572;10.704;2024-03-06T02:57:05;1.42;;;1.05;;
52734;SDS011;38631;47.572;10.704;2024-03-06T02:59:32;1.80;;;1.27;;
52734;SDS011;38631;47.572;10.704;2024-03-06T03:01:57;1.60;;;1.07;;
52734;SDS011;38631;47.572;10.704;2024-03-06T03:04:22;1.30;;;0.98;;
52734;SDS011;38631;47.572;10.704;2024-03-06T03:06:47;0.83;;;0.60;;
52734;SDS011;38631;47.572;10.704;2024-03-06T03:09:13;1.00;;;0.70;;
52734;SDS011;38631;47.572;10.704;2024-03-06T03:11:38;1.10;;;0.80;;
52734;SDS011;38631;47.572;10.704;2024-03-06T03:14:03;1.38;;;0.90;;
52734;SDS011;38631;47.572;10.704;2024-03-06T03:16:29;0.73;;;0.50;;
52734;SDS011;38631;47.572;10.704;2024-03-06T03:18:54;0.77;;;0.52;;
52734;SDS011;38631;47.572;10.704;2024-03-06T03:21:20;0.50;;;0.40;;
52734;SDS011;38631;47.572;10.704;2024-03-06T03:23:45;0.77;;;0.50;;
52734;SDS011;38631;47.572;10.704;2024-03-06T03:26:10;1.33;;;0.60;;
52734;SDS011;38631;47.572;10.704;2024-03-06T03:28:38;0.90;;;0.47;;
52734;SDS011;38631;47.572;10.704;2024-03-06T03:31:05;0.43;;;0.40;;
52734;SDS011;38631;47.572;10.704;2024-03-06T03:33:30;0.50;;;0.40;;
52734;SDS011;38631;47.572;10.704;2024-03-06T03:35:56;0.63;;;0.52;;
52734;SDS011;38631;47.572;10.704;2024-03-06T03:38:21;1.15;;;0.85;;
52734;SDS011;38631;47.572;10.704;2024-03-06T03:40:46;0.77;;;0.53;;
52734;SDS011;38631;47.572;10.704;2024-03-06T03:43:12;0.70;;;0.60;;
52734;SDS011;38631;47.572;10.704;2024-03-06T03:45:37;0.80;;;0.60;;
52734;SDS011;38631;47.572;10.704;2024-03-06T03:48:02;0.80;;;0.70;;
52734;SDS011;38631;47.572;10.704;2024-03-06T03:50:28;2.83;;;0.50;;
52734;SDS011;38631;47.572;10.704;2024-03-06T03:52:53;0.60;;;0.50;;
52734;SDS011;38631;47.572;10.704;2024-03-06T03:55:18;0.70;;;0.50;;
52734;SDS011;38631;47.572;10.704;2024-03-06T03:57:43;0.85;;;0.60;;
52734;SDS011;38631;47.572;10.704;2024-03-06T04:00:09;1.20;;;0.77;;
52734;SDS011;38631;47.572;10.704;2024-03-06T04:02:36;1.10;;;0.80;;
52734;SDS011;38631;47.572;10.704;2024-03-06T04:05:01;0.80;;;0.50;;
52734;SDS011;38631;47.572;10.704;2024-03-06T04:07:26;0.90;;;0.60;;
52734;SDS011;38631;47.572;10.704;2024-03-06T04:09:52;0.77;;;0.50;;
52734;SDS011;38631;47.572;10.704;2024-03-06T04:12:17;0.60;;;0.50;;
52734;SDS011;38631;47.572;10.704;2024-03-06T04:14:42;0.60;;;0.43;;
52734;SDS011;38631;47.572;10.704;2024-03-06T04:17:07;0.63;;;0.47;;
52734;SDS011;38631;47.572;10.704;2024-03-06T04:19:33;0.47;;;0.40;;
52734;SDS011;38631;47.572;10.704;2024-03-06T04:21:59;0.47;;;0.40;;
52734;SDS011;38631;47.572;10.704;2024-03-06T04:24:24;0.60;;;0.50;;
52734;SDS011;38631;47.572;10.704;2024-03-06T04:26:49;0.80;;;0.50;;
52734;SDS011;38631;47.572;10.704;2024-03-06T04:29:14;0.32;;;0.32;;
52734;SDS011;38631;47.572;10.704;2024-03-06T04:31:40;2.00;;;1.38;;
52734;SDS011;38631;47.572;10.704;2024-03-06T04:34:06;1.92;;;1.40;;
52734;SDS011;38631;47.572;10.704;2024-03-06T04:36:31;1.30;;;0.98;;
52734;SDS011;38631;47.572;10.704;2024-03-06T04:38:56;2.40;;;1.60;;
52734;SDS011;38631;47.572;10.704;2024-03-06T04:41:21;3.37;;;2.60;;
52734;SDS011;38631;47.572;10.704;2024-03-06T04:43:48;3.95;;;3.42;;
52734;SDS011;38631;47.572;10.704;2024-03-06T04:46:15;3.38;;;2.50;;
52734;SDS011;38631;47.572;10.704;2024-03-06T04:48:41;3.58;;;2.25;;
52734;SDS011;38631;47.572;10.704;2024-03-06T04:51:06;4.13;;;3.05;;
52734;SDS011;38631;47.572;10.704;2024-03-06T04:53:31;3.42;;;2.42;;
52734;SDS011;38631;47.572;10.704;2024-03-06T04:55:56;2.83;;;1.80;;
52734;SDS011;38631;47.572;10.704;2024-03-06T04:58:22;0.85;;;0.60;;
52734;SDS011;38631;47.572;10.704;2024-03-06T05:00:47;2.10;;;0.98;;
52734;SDS011;38631;47.572;10.704;2024-03-06T05:03:12;1.27;;;0.90;;
52734;SDS011;38631;47.572;10.704;2024-03-06T05:05:37;2.42;;;2.28;;
52734;SDS011;38631;47.572;10.704;2024-03-06T05:08:05;4.13;;;3.83;;
52734;SDS011;38631;47.572;10.704;2024-03-06T05:10:32;2.00;;;1.90;;
52734;SDS011;38631;47.572;10.704;2024-03-06T05:12:57;1.40;;;1.30;;
52734;SDS011;38631;47.572;10.704;2024-03-06T05:15:22;1.83;;;1.50;;
52734;SDS011;38631;47.572;10.704;2024-03-06T05:17:47;1.30;;;1.20;;
52734;SDS011;38631;47.572;10.704;2024-03-06T05:20:13;1.38;;;1.20;;
52734;SDS011;38631;47.572;10.704;2024-03-06T05:22:39;1.38;;;1.02;;
52734;SDS011;38631;47.572;10.704;2024-03-06T05:25:05;1.83;;;1.58;;
52734;SDS011;38631;47.572;10.704;2024-03-06T05:27:31;1.10;;;1.00;;
52734;SDS011;38631;47.572;10.704;2024-03-06T05:29:57;1.42;;;1.23;;
52734;SDS011;38631;47.572;10.704;2024-03-06T05:32:22;1.38;;;1.27;;
52734;SDS011;38631;47.572;10.704;2024-03-06T05:34:47;3.03;;;2.60;;
52734;SDS011;38631;47.572;10.704;2024-03-06T05:37:13;2.72;;;2.30;;
52734;SDS011;38631;47.572;10.704;2024-03-06T05:39:38;2.38;;;2.13;;
52734;SDS011;38631;47.572;10.704;2024-03-06T05:42:04;2.92;;;2.35;;
52734;SDS011;38631;47.572;10.704;2024-03-06T05:44:30;2.58;;;2.10;;
52734;SDS011;38631;47.572;10.704;2024-03-06T05:46:55;3.40;;;2.50;;
52734;SDS011;38631;47.572;10.704;2024-03-06T05:49:21;2.45;;;2.03;;
52734;SDS011;38631;47.572;10.704;2024-03-06T05:51:46;4.53;;;2.40;;
52734;SDS011;38631;47.572;10.704;2024-03-06T05:54:11;5.68;;;4.78;;
52734;SDS011;38631;47.572;10.704;2024-03-06T05:56:36;4.17;;;3.77;;
52734;SDS011;38631;47.572;10.704;2024-03-06T05:59:03;6.50;;;4.75;;
52734;SDS011;38631;47.572;10.704;2024-03-06T06:01:30;5.32;;;3.45;;
52734;SDS011;38631;47.572;10.704;2024-03-06T06:03:55;2.55;;;2.22;;
52734;SDS011;38631;47.572;10.704;2024-03-06T06:06:23;2.40;;;2.20;;
52734;SDS011;38631;47.572;10.704;2024-03-06T06:08:48;2.90;;;2.60;;
52734;SDS011;38631;47.572;10.704;2024-03-06T06:11:13;2.33;;;2.08;;
52734;SDS011;38631;47.572;10.704;2024-03-06T06:13:39;1.80;;;1.70;;
52734;SDS011;38631;47.572;10.704;2024-03-06T06:16:06;2.83;;;1.40;;
52734;SDS011;38631;47.572;10.704;2024-03-06T06:18:32;1.40;;;1.30;;
52734;SDS011;38631;47.572;10.704;2024-03-06T06:20:57;1.60;;;1.40;;
52734;SDS011;38631;47.572;10.704;2024-03-06T06:23:23;1.25;;;0.93;;
52734;SDS011;38631;47.572;10.704;2024-03-06T06:25:50;1.08;;;0.73;;
52734;SDS011;38631;47.572;10.704;2024-03-06T06:28:15;1.02;;;0.50;;
52734;SDS011;38631;47.572;10.704;2024-03-06T06:30:40;0.75;;;0.40;;
52734;SDS011;38631;47.572;10.704;2024-03-06T06:33:06;0.85;;;0.40;;
52734;SDS011;38631;47.572;10.704;2024-03-06T06:35:31;1.20;;;0.30;;
52734;SDS011;38631;47.572;10.704;2024-03-06T06:37:57;1.80;;;0.57;;
52734;SDS011;38631;47.572;10.704;2024-03-06T06:40:22;1.47;;;0.80;;
52734;SDS011;38631;47.572;10.704;2024-03-06T06:42:48;1.77;;;0.80;;
52734;SDS011;38631;47.572;10.704;2024-03-06T06:45:17;1.70;;;1.10;;
52734;SDS011;38631;47.572;10.704;2024-03-06T06:47:44;1.30;;;1.10;;
52734;SDS011;38631;47.572;10.704;2024-03-06T06:50:09;1.58;;;1.08;;
52734;SDS011;38631;47.572;10.704;2024-03-06T06:52:35;1.27;;;0.93;;
52734;SDS011;38631;47.572;10.704;2024-03-06T06:55:00;3.90;;;1.52;;
52734;SDS011;38631;47.572;10.704;2024-03-06T06:57:26;2.75;;;1.90;;
52734;SDS011;38631;47.572;10.704;2024-03-06T06:59:51;5.13;;;1.60;;
52734;SDS011;38631;47.572;10.704;2024-03-06T07:02:16;4.80;;;2.63;;
52734;SDS011;38631;47.572;10.704;2024-03-06T07:04:42;4.22;;;3.50;;
52734;SDS011;38631;47.572;10.704;2024-03-06T07:07:07;3.97;;;3.40;;
52734;SDS011;38631;47.572;10.704;2024-03-06T07:09:32;4.70;;;3.63;;
52734;SDS011;38631;47.572;10.704;2024-03-06T07:11:58;3.75;;;3.25;;
52734;SDS011;38631;47.572;10.704;2024-03-06T07:14:24;4.40;;;3.72;;
52734;SDS011;38631;47.572;10.704;2024-03-06T07:16:49;5.00;;;4.35;;
52734;SDS011;38631;47.572;10.704;2024-03-06T07:19:15;5.13;;;3.50;;
52734;SDS011;38631;47.572;10.704;2024-03-06T07:21:40;4.83;;;2.57;;
52734;SDS011;38631;47.572;10.704;2024-03-06T07:24:05;4.43;;;3.72;;
52734;SDS011;38631;47.572;10.704;2024-03-06T07:26:35;5.07;;;3.08;;
52734;SDS011;38631;47.572;10.704;2024-03-06T07:29:03;5.90;;;4.97;;
52734;SDS011;38631;47.572;10.704;2024-03-06T07:31:29;4.72;;;4.15;;
52734;SDS011;38631;47.572;10.704;2024-03-06T07:33:54;5.03;;;3.55;;
52734;SDS011;38631;47.572;10.704;2024-03-06T07:36:20;7.57;;;4.45;;
52734;SDS011;38631;47.572;10.704;2024-03-06T07:38:45;11.57;;;6.28;;
52734;SDS011;38631;47.572;10.704;2024-03-06T07:41:11;6.53;;;3.92;;
52734;SDS011;38631;47.572;10.704;2024-03-06T07:43:37;4.63;;;2.67;;
52734;SDS011;38631;47.572;10.704;2024-03-06T07:46:03;4.25;;;3.05;;
52734;SDS011;38631;47.572;10.704;2024-03-06T07:51:01;6.68;;;3.95;;
52734;SDS011;38631;47.572;10.704;2024-03-06T07:53:27;5.18;;;2.90;;
52734;SDS011;38631;47.572;10.704;2024-03-06T07:55:52;4.30;;;2.67;;
52734;SDS011;38631;47.572;10.704;2024-03-06T07:58:17;4.72;;;2.70;;
52734;SDS011;38631;47.572;10.704;2024-03-06T08:00:43;43.38;;;8.35;;
52734;SDS011;38631;47.572;10.704;2024-03-06T08:03:08;69.93;;;10.00;;
52734;SDS011;38631;47.572;10.704;2024-03-06T08:05:33;62.53;;;10.10;;
52734;SDS011;38631;47.572;10.704;2024-03-06T08:07:59;41.40;;;6.28;;
52734;SDS011;38631;47.572;10.704;2024-03-06T08:10:24;32.63;;;5.18;;
52734;SDS011;38631;47.572;10.704;2024-03-06T08:12:49;29.08;;;5.32;;
52734;SDS011;38631;47.572;10.704;2024-03-06T08:15:15;17.65;;;2.92;;
52734;SDS011;38631;47.572;10.704;2024-03-06T08:17:43;10.88;;;2.30;;
52734;SDS011;38631;47.572;10.704;2024-03-06T08:20:10;4.68;;;1.52;;
52734;SDS011;38631;47.572;10.704;2024-03-06T08:22:39;2.72;;;2.20;;
52734;SDS011;38631;47.572;10.704;2024-03-06T08:25:08;1.55;;;1.20;;
52734;SDS011;38631;47.572;10.704;2024-03-06T08:27:34;3.95;;;1.90;;
52734;SDS011;38631;47.572;10.704;2024-03-06T08:29:59;2.72;;;1.80;;
52734;SDS011;38631;47.572;10.704;2024-03-06T08:32:25;5.15;;;2.92;;
52734;SDS011;38631;47.572;10.704;2024-03-06T08:34:50;5.50;;;3.17;;
52734;SDS011;38631;47.572;10.704;2024-03-06T08:37:15;8.32;;;3.60;;
52734;SDS011;38631;47.572;10.704;2024-03-06T08:39:41;6.30;;;3.25;;
52734;SDS011;38631;47.572;10.704;2024-03-06T08:42:06;6.40;;;3.67;;
52734;SDS011;38631;47.572;10.704;2024-03-06T08:44:31;4.40;;;2.13;;
52734;SDS011;38631;47.572;10.704;2024-03-06T08:46:57;3.33;;;2.05;;
52734;SDS011;38631;47.572;10.704;2024-03-06T08:49:22;3.08;;;2.28;;
52734;SDS011;38631;47.572;10.704;2024-03-06T08:51:47;4.30;;;1.60;;
52734;SDS011;38631;47.572;10.704;2024-03-06T08:54:12;2.53;;;1.70;;
52734;SDS011;38631;47.572;10.704;2024-03-06T08:56:38;2.75;;;1.90;;
52734;SDS011;38631;47.572;10.704;2024-03-06T08:59:03;2.47;;;1.58;;
52734;SDS011;38631;47.572;10.704;2024-03-06T09:01:28;2.75;;;2.00;;
52734;SDS011;38631;47.572;10.704;2024-03-06T09:03:53;3.10;;;2.80;;
52734;SDS011;38631;47.572;10.704;2024-03-06T09:06:20;3.40;;;2.60;;
52734;SDS011;38631;47.572;10.704;2024-03-06T09:08:45;2.45;;;1.90;;
52734;SDS011;38631;47.572;10.704;2024-03-06T09:11:12;3.47;;;1.80;;
52734;SDS011;38631;47.572;10.704;2024-03-06T09:13:37;5.00;;;2.33;;
52734;SDS011;38631;47.572;10.704;2024-03-06T09:16:02;4.10;;;3.03;;
52734;SDS011;38631;47.572;10.704;2024-03-06T09:18:28;4.90;;;3.53;;
52734;SDS011;38631;47.572;10.704;2024-03-06T09:20:53;2.80;;;2.50;;
52734;SDS011;38631;47.572;10.704;2024-03-06T09:23:18;3.43;;;2.30;;
52734;SDS011;38631;47.572;10.704;2024-03-06T09:25:43;2.13;;;1.45;;
52734;SDS011;38631;47.572;10.704;2024-03-06T09:28:09;2.55;;;1.52;;
52734;SDS011;38631;47.572;10.704;2024-03-06T09:30:34;1.42;;;1.02;;
52734;SDS011;38631;47.572;10.704;2024-03-06T09:32:59;1.37;;;0.90;;
52734;SDS011;38631;47.572;10.704;2024-03-06T09:35:24;0.82;;;0.70;;
52734;SDS011;38631;47.572;10.704;2024-03-06T09:37:50;2.57;;;1.40;;
52734;SDS011;38631;47.572;10.704;2024-03-06T09:40:21;1.58;;;1.48;;
52734;SDS011;38631;47.572;10.704;2024-03-06T09:42:47;3.05;;;1.42;;
52734;SDS011;38631;47.572;10.704;2024-03-06T09:45:39;8.10;;;1.90;;
52734;SDS011;38631;47.572;10.704;2024-03-06T09:48:07;2.17;;;1.20;;
52734;SDS011;38631;47.572;10.704;2024-03-06T09:50:33;4.43;;;1.70;;
52734;SDS011;38631;47.572;10.704;2024-03-06T10:31:55;3.20;;;2.22;;
52734;SDS011;38631;47.572;10.704;2024-03-06T10:34:22;2.60;;;2.20;;
52734;SDS011;38631;47.572;10.704;2024-03-06T10:52:20;2.05;;;1.08;;
52734;SDS011;38631;47.572;10.704;2024-03-06T10:54:46;1.80;;;0.80;;
52734;SDS011;38631;47.572;10.704;2024-03-06T10:57:13;1.20;;;0.85;;
52734;SDS011;38631;47.572;10.704;2024-03-06T10:59:48;1.38;;;1.10;;
52734;SDS011;38631;47.572;10.704;2024-03-06T11:02:15;1.73;;;1.30;;
52734;SDS011;38631;47.572;10.704;2024-03-06T11:04:46;4.30;;;2.90;;
52734;SDS011;38631;47.572;10.704;2024-03-06T11:07:12;2.10;;;1.27;;
52734;SDS011;38631;47.572;10.704;2024-03-06T11:12:42;1.20;;;1.00;;
52734;SDS011;38631;47.572;10.704;2024-03-06T11:17:59;4.50;;;2.67;;
52734;SDS011;38631;47.572;10.704;2024-03-06T11:20:24;3.08;;;1.52;;
52734;SDS011;38631;47.572;10.704;2024-03-06T11:23:31;1.55;;;1.40;;
52734;SDS011;38631;47.572;10.704;2024-03-06T11:26:09;1.10;;;0.70;;
52734;SDS011;38631;47.572;10.704;2024-03-06T11:31:59;1.40;;;0.80;;
52734;SDS011;38631;47.572;10.704;2024-03-06T11:37:50;3.00;;;1.20;;
52734;SDS011;38631;47.572;10.704;2024-03-06T11:40:20;1.92;;;1.23;;
52734;SDS011;38631;47.572;10.704;2024-03-06T11:42:49;8.00;;;3.83;;
52734;SDS011;38631;47.572;10.704;2024-03-06T11:48:27;2.65;;;1.60;;
52734;SDS011;38631;47.572;10.704;2024-03-06T11:50:52;1.45;;;1.23;;
52734;SDS011;38631;47.572;10.704;2024-03-06T11:53:18;1.50;;;1.33;;
52734;SDS011;38631;47.572;10.704;2024-03-06T12:38:31;4.10;;;2.53;;
52734;SDS011;38631;47.572;10.704;2024-03-06T12:40:57;2.90;;;1.30;;
52734;SDS011;38631;47.572;10.704;2024-03-06T12:45:58;1.92;;;1.42;;
52734;SDS011;38631;47.572;10.704;2024-03-06T12:48:23;1.47;;;0.97;;
52734;SDS011;38631;47.572;10.704;2024-03-06T12:50:49;1.10;;;0.90;;
52734;SDS011;38631;47.572;10.704;2024-03-06T12:53:20;1.90;;;1.30;;
52734;SDS011;38631;47.572;10.704;2024-03-06T12:55:45;2.47;;;1.58;;
52734;SDS011;38631;47.572;10.704;2024-03-06T12:58:14;2.93;;;1.90;;
52734;SDS011;38631;47.572;10.704;2024-03-06T13:00:39;3.08;;;1.80;;
52734;SDS011;38631;47.572;10.704;2024-03-06T13:03:05;2.33;;;1.70;;
52734;SDS011;38631;47.572;10.704;2024-03-06T13:05:30;1.90;;;1.42;;
52734;SDS011;38631;47.572;10.704;2024-03-06T13:07:56;2.47;;;1.30;;
52734;SDS011;38631;47.572;10.704;2024-03-06T13:10:21;1.90;;;1.50;;
52734;SDS011;38631;47.572;10.704;2024-03-06T13:12:47;2.00;;;1.58;;
52734;SDS011;38631;47.572;10.704;2024-03-06T13:15:12;2.40;;;1.30;;
52734;SDS011;38631;47.572;10.704;2024-03-06T13:17:37;1.33;;;1.07;;
52734;SDS011;38631;47.572;10.704;2024-03-06T13:20:02;1.33;;;1.20;;
52734;SDS011;38631;47.572;10.704;2024-03-06T13:22:28;1.25;;;0.90;;
52734;SDS011;38631;47.572;10.704;2024-03-06T13:24:53;1.20;;;0.87;;
52734;SDS011;38631;47.572;10.704;2024-03-06T13:27:18;5.43;;;3.30;;
52734;SDS011;38631;47.572;10.704;2024-03-06T13:29:43;3.80;;;2.67;;
52734;SDS011;38631;47.572;10.704;2024-03-06T13:32:08;2.30;;;1.60;;
52734;SDS011;38631;47.572;10.704;2024-03-06T13:34:34;1.70;;;1.50;;
52734;SDS011;38631;47.572;10.704;2024-03-06T13:36:59;1.35;;;1.13;;
52734;SDS011;38631;47.572;10.704;2024-03-06T13:39:24;1.13;;;0.90;;
52734;SDS011;38631;47.572;10.704;2024-03-06T13:41:50;3.40;;;2.70;;
52734;SDS011;38631;47.572;10.704;2024-03-06T13:44:15;4.53;;;1.83;;
52734;SDS011;38631;47.572;10.704;2024-03-06T13:46:40;2.37;;;1.70;;
52734;SDS011;38631;47.572;10.704;2024-03-06T13:49:05;2.53;;;1.95;;
52734;SDS011;38631;47.572;10.704;2024-03-06T13:51:31;4.90;;;3.07;;
52734;SDS011;38631;47.572;10.704;2024-03-06T13:53:56;5.80;;;4.00;;
52734;SDS011;38631;47.572;10.704;2024-03-06T13:56:21;2.70;;;1.73;;
52734;SDS011;38631;47.572;10.704;2024-03-06T13:58:46;1.55;;;0.70;;
52734;SDS011;38631;47.572;10.704;2024-03-06T14:01:12;2.30;;;1.70;;
52734;SDS011;38631;47.572;10.704;2024-03-06T14:03:37;2.15;;;1.10;;
52734;SDS011;38631;47.572;10.704;2024-03-06T14:06:04;1.90;;;1.67;;
52734;SDS011;38631;47.572;10.704;2024-03-06T14:08:30;1.55;;;1.33;;
52734;SDS011;38631;47.572;10.704;2024-03-06T14:10:55;2.00;;;1.50;;
52734;SDS011;38631;47.572;10.704;2024-03-06T14:13:20;1.80;;;1.40;;
52734;SDS011;38631;47.572;10.704;2024-03-06T14:15:45;1.80;;;1.47;;
52734;SDS011;38631;47.572;10.704;2024-03-06T14:18:12;2.00;;;1.75;;
52734;SDS011;38631;47.572;10.704;2024-03-06T14:20:37;3.13;;;2.17;;
52734;SDS011;38631;47.572;10.704;2024-03-06T14:23:04;2.40;;;1.92;;
52734;SDS011;38631;47.572;10.704;2024-03-06T14:25:29;5.97;;;3.25;;
52734;SDS011;38631;47.572;10.704;2024-03-06T14:27:54;5.82;;;3.80;;
52734;SDS011;38631;47.572;10.704;2024-03-06T14:30:19;3.43;;;2.80;;
52734;SDS011;38631;47.572;10.704;2024-03-06T14:32:45;2.72;;;2.53;;
52734;SDS011;38631;47.572;10.704;2024-03-06T14:35:10;4.03;;;2.83;;
52734;SDS011;38631;47.572;10.704;2024-03-06T14:37:35;1.80;;;1.23;;
52734;SDS011;38631;47.572;10.704;2024-03-06T14:40:00;0.93;;;0.83;;
52734;SDS011;38631;47.572;10.704;2024-03-06T14:42:26;1.50;;;1.17;;
52734;SDS011;38631;47.572;10.704;2024-03-06T14:44:51;1.27;;;0.93;;
52734;SDS011;38631;47.572;10.704;2024-03-06T14:47:16;2.47;;;1.77;;
52734;SDS011;38631;47.572;10.704;2024-03-06T14:49:42;1.50;;;1.10;;
52734;SDS011;38631;47.572;10.704;2024-03-06T14:52:07;2.33;;;1.40;;
52734;SDS011;38631;47.572;10.704;2024-03-06T14:54:34;2.53;;;1.85;;
52734;SDS011;38631;47.572;10.704;2024-03-06T14:56:59;6.25;;;3.90;;
52734;SDS011;38631;47.572;10.704;2024-03-06T14:59:24;1.93;;;1.47;;
52734;SDS011;38631;47.572;10.704;2024-03-06T15:01:49;2.33;;;1.70;;
52734;SDS011;38631;47.572;10.704;2024-03-06T15:04:15;2.60;;;1.92;;
52734;SDS011;38631;47.572;10.704;2024-03-06T15:06:40;2.70;;;2.05;;
52734;SDS011;38631;47.572;10.704;2024-03-06T15:09:05;1.70;;;1.20;;
52734;SDS011;38631;47.572;10.704;2024-03-06T15:11:31;0.80;;;0.70;;
52734;SDS011;38631;47.572;10.704;2024-03-06T15:13:59;0.88;;;0.60;;
52734;SDS011;38631;47.572;10.704;2024-03-06T15:16:24;1.00;;;0.60;;
52734;SDS011;38631;47.572;10.704;2024-03-06T15:18:49;1.40;;;0.95;;
52734;SDS011;38631;47.572;10.704;2024-03-06T15:21:16;1.45;;;1.20;;
52734;SDS011;38631;47.572;10.704;2024-03-06T15:23:42;1.87;;;1.40;;
52734;SDS011;38631;47.572;10.704;2024-03-06T15:26:07;1.83;;;1.60;;
52734;SDS011;38631;47.572;10.704;2024-03-06T15:28:32;2.60;;;1.20;;
52734;SDS011;38631;47.572;10.704;2024-03-06T15:30:57;1.85;;;1.60;;
52734;SDS011;38631;47.572;10.704;2024-03-06T15:33:22;3.43;;;2.63;;
52734;SDS011;38631;47.572;10.704;2024-03-06T15:35:48;2.67;;;2.00;;
52734;SDS011;38631;47.572;10.704;2024-03-06T15:38:13;3.47;;;2.20;;
52734;SDS011;38631;47.572;10.704;2024-03-06T15:40:38;2.80;;;2.40;;
52734;SDS011;38631;47.572;10.704;2024-03-06T15:43:03;3.05;;;1.90;;
52734;SDS011;38631;47.572;10.704;2024-03-06T15:45:28;2.93;;;1.83;;
52734;SDS011;38631;47.572;10.704;2024-03-06T15:47:54;1.53;;;1.43;;
52734;SDS011;38631;47.572;10.704;2024-03-06T15:50:19;2.63;;;1.97;;
52734;SDS011;38631;47.572;10.704;2024-03-06T15:52:45;2.90;;;2.17;;
52734;SDS011;38631;47.572;10.704;2024-03-06T15:55:10;2.95;;;2.03;;
52734;SDS011;38631;47.572;10.704;2024-03-06T15:57:36;4.38;;;2.58;;
52734;SDS011;38631;47.572;10.704;2024-03-06T16:00:09;3.85;;;1.88;;
52734;SDS011;38631;47.572;10.704;2024-03-06T16:02:38;3.70;;;2.90;;
52734;SDS011;38631;47.572;10.704;2024-03-06T16:05:03;2.95;;;1.40;;
52734;SDS011;38631;47.572;10.704;2024-03-06T16:07:29;3.00;;;2.80;;
52734;SDS011;38631;47.572;10.704;2024-03-06T16:09:56;2.60;;;2.40;;
52734;SDS011;38631;47.572;10.704;2024-03-06T16:12:22;2.40;;;1.97;;
52734;SDS011;38631;47.572;10.704;2024-03-06T16:14:48;3.50;;;2.47;;
52734;SDS011;38631;47.572;10.704;2024-03-06T16:17:13;2.40;;;1.60;;
52734;SDS011;38631;47.572;10.704;2024-03-06T16:19:40;4.20;;;2.70;;
52734;SDS011;38631;47.572;10.704;2024-03-06T16:22:05;3.53;;;2.20;;
52734;SDS011;38631;47.572;10.704;2024-03-06T16:24:31;4.38;;;2.13;;
52734;SDS011;38631;47.572;10.704;2024-03-06T16:26:56;2.85;;;2.30;;
52734;SDS011;38631;47.572;10.704;2024-03-06T16:29:22;2.63;;;2.20;;
52734;SDS011;38631;47.572;10.704;2024-03-06T16:31:47;2.55;;;2.05;;
52734;SDS011;38631;47.572;10.704;2024-03-06T16:34:14;3.60;;;2.42;;